Un Akdeniz — TCTD2 — position and weather

sailwx.info

Track history (hours):
 
Tides and Currents Weather Stations Pressure Air Temp Water Temp Dewpoint Dewpoint Depression Visibility Wind Speed Wind Dir Waves Ship Positions

Un Akdeniz

Last reported at 2016-Jun-25 20:31 UTC. Time now 2016-Jun-26 13:47 UTC.
Position N 37°24' E 023°60'.

Length 192 m; draft 6.8 m.

Type: Ship (hazmat cat A). MMSI: 271002572.

Date/timePositionNaut miles runAvg speedWind from/ knotsBaromVisibWave heightAir tempDewpointWater temp
2016-Jun-25 20:31N 37°24' E 023°60'2020.4
2016-Jun-25 19:31N 37°40' E 024°14'2021.0
2016-Jun-25 18:34N 37°55' E 024°32'26813.2
2016-Jun-24 22:13N 40°52' E 028°52'1420.1
2016-Jun-24 21:32N 40°50' E 029°10'5 3.9
2016-Jun-24 20:18N 40°51' E 029°16'0 0.0
2016-Jun-24 19:30N 40°51' E 029°16'0 0.0
2016-Jun-24 18:29N 40°51' E 029°16'0 0.0
2016-Jun-24 17:05N 40°51' E 029°16'0 0.0
2016-Jun-24 12:33N 40°51' E 029°16'0 0.0
2016-Jun-24 11:26N 40°51' E 029°16'0 0.0
2016-Jun-24 10:32N 40°51' E 029°16'0 0.0
2016-Jun-24 08:13N 40°51' E 029°16'0 0.0
2016-Jun-24 04:31N 40°51' E 029°16'0 0.0
2016-Jun-24 02:16N 40°51' E 029°16'0 0.0
2016-Jun-23 22:27N 40°51' E 029°16'0 0.0
2016-Jun-23 21:31N 40°51' E 029°16'0 0.0
2016-Jun-23 19:26N 40°51' E 029°16'0 0.0
2016-Jun-23 17:31N 40°51' E 029°16'0 0.0
2016-Jun-23 16:33N 40°51' E 029°16'10 9.7
2016-Jun-23 15:33N 40°48' E 029°04'26616.2
2016-Jun-22 23:12N 37°59' E 024°39'1117.8
2016-Jun-22 22:34N 37°48' E 024°33'2318.8
2016-Jun-22 21:21N 37°29' E 024°19'1519.1
2016-Jun-22 20:34N 37°17' E 024°07'2119.5
2016-Jun-22 19:30N 37°00' E 023°52'1819.1
2016-Jun-22 18:33N 36°46' E 023°38'27116.8
2016-Jun-22 02:24N 39°34' E 019°07'42819.6
2016-Jun-21 04:31N 45°09' E 013°06'1917.4
2016-Jun-21 03:26N 45°28' E 013°12'26 2.6
2016-Jun-20 17:26N 45°39' E 013°45'28 5.7
2016-Jun-20 12:33N 45°21' E 013°14'1919.4
2016-Jun-20 11:33N 45°03' E 013°21'53019.6
2016-Jun-19 08:27N 37°58' E 020°25'16514.9
2016-Jun-18 21:24N 37°03' E 023°41'1720.2
2016-Jun-18 20:33N 37°17' E 023°53'2320.6
2016-Jun-18 19:26N 37°36' E 024°10'1920.4
2016-Jun-18 18:31N 37°50' E 024°25'4120.5
2016-Jun-18 16:32N 38°25' E 024°53'8420.2
2016-Jun-18 12:24N 39°39' E 025°43'1820.0
2016-Jun-18 11:30N 39°54' E 025°54'8316.8
2016-Jun-18 06:33N 40°40' E 027°25'2019.6
2016-Jun-18 05:33N 40°41' E 027°51'2419.5
2016-Jun-18 04:18N 40°42' E 028°23'1418.5
2016-Jun-18 03:33N 40°52' E 028°36'7 5.0
2016-Jun-18 02:08N 40°58' E 028°41'4 1.0
2016-Jun-17 22:24N 40°55' E 028°44'1719.8
2016-Jun-17 21:33N 40°49' E 029°04'9 8.5
2016-Jun-17 20:28N 40°51' E 029°16'0 0.0
2016-Jun-17 19:28N 40°51' E 029°16'0 0.0
2016-Jun-17 18:09N 40°51' E 029°16'0 0.0
2016-Jun-17 17:21N 40°51' E 029°16'0 0.0
2016-Jun-17 16:23N 40°51' E 029°16'0 0.0
2016-Jun-17 15:32N 40°51' E 029°16'0 0.0
2016-Jun-17 14:14N 40°51' E 029°16'0 0.0
2016-Jun-17 13:19N 40°51' E 029°16'0 0.0
2016-Jun-17 12:32N 40°51' E 029°16'116 3.8
2016-Jun-16 06:10N 40°26' E 026°47'3814.5
2016-Jun-16 03:33N 40°01' E 026°09'1918.9
2016-Jun-16 02:33N 39°48' E 025°51'9120.4
2016-Jun-15 22:06N 38°28' E 024°57'  
Track history (hours):
 
Tides and Currents Weather Stations Pressure Air Temp Water Temp Dewpoint Dewpoint Depression Visibility Wind Speed Wind Dir Waves Ship Positions

Un Akdeniz

Last reported at 2016-Jun-25 20:31 UTC. Time now 2016-Jun-26 13:47 UTC.
Position N 37°24' E 023°60'.

Length 192 m; draft 6.8 m.

Type: Ship (hazmat cat A). MMSI: 271002572.

Date/timePositionNaut miles runAvg speedWind from/ knotsBaromVisibWave heightAir tempDewpointWater temp
2016-Jun-25 20:31N 37°24' E 023°60'2020.4
2016-Jun-25 19:31N 37°40' E 024°14'2021.0
2016-Jun-25 18:34N 37°55' E 024°32'26813.2
2016-Jun-24 22:13N 40°52' E 028°52'1420.1
2016-Jun-24 21:32N 40°50' E 029°10'5 3.9
2016-Jun-24 20:18N 40°51' E 029°16'0 0.0
2016-Jun-24 19:30N 40°51' E 029°16'0 0.0
2016-Jun-24 18:29N 40°51' E 029°16'0 0.0
2016-Jun-24 17:05N 40°51' E 029°16'0 0.0
2016-Jun-24 12:33N 40°51' E 029°16'0 0.0
2016-Jun-24 11:26N 40°51' E 029°16'0 0.0
2016-Jun-24 10:32N 40°51' E 029°16'0 0.0
2016-Jun-24 08:13N 40°51' E 029°16'0 0.0
2016-Jun-24 04:31N 40°51' E 029°16'0 0.0
2016-Jun-24 02:16N 40°51' E 029°16'0 0.0
2016-Jun-23 22:27N 40°51' E 029°16'0 0.0
2016-Jun-23 21:31N 40°51' E 029°16'0 0.0
2016-Jun-23 19:26N 40°51' E 029°16'0 0.0
2016-Jun-23 17:31N 40°51' E 029°16'0 0.0
2016-Jun-23 16:33N 40°51' E 029°16'10 9.7
2016-Jun-23 15:33N 40°48' E 029°04'26616.2
2016-Jun-22 23:12N 37°59' E 024°39'1117.8
2016-Jun-22 22:34N 37°48' E 024°33'2318.8
2016-Jun-22 21:21N 37°29' E 024°19'1519.1
2016-Jun-22 20:34N 37°17' E 024°07'2119.5
2016-Jun-22 19:30N 37°00' E 023°52'1819.1
2016-Jun-22 18:33N 36°46' E 023°38'27116.8
2016-Jun-22 02:24N 39°34' E 019°07'42819.6
2016-Jun-21 04:31N 45°09' E 013°06'1917.4
2016-Jun-21 03:26N 45°28' E 013°12'26 2.6
2016-Jun-20 17:26N 45°39' E 013°45'28 5.7
2016-Jun-20 12:33N 45°21' E 013°14'1919.4
2016-Jun-20 11:33N 45°03' E 013°21'53019.6
2016-Jun-19 08:27N 37°58' E 020°25'16514.9
2016-Jun-18 21:24N 37°03' E 023°41'1720.2
2016-Jun-18 20:33N 37°17' E 023°53'2320.6
2016-Jun-18 19:26N 37°36' E 024°10'1920.4
2016-Jun-18 18:31N 37°50' E 024°25'4120.5
2016-Jun-18 16:32N 38°25' E 024°53'8420.2
2016-Jun-18 12:24N 39°39' E 025°43'1820.0
2016-Jun-18 11:30N 39°54' E 025°54'8316.8
2016-Jun-18 06:33N 40°40' E 027°25'2019.6
2016-Jun-18 05:33N 40°41' E 027°51'2419.5
2016-Jun-18 04:18N 40°42' E 028°23'1418.5
2016-Jun-18 03:33N 40°52' E 028°36'7 5.0
2016-Jun-18 02:08N 40°58' E 028°41'4 1.0
2016-Jun-17 22:24N 40°55' E 028°44'1719.8
2016-Jun-17 21:33N 40°49' E 029°04'9 8.5
2016-Jun-17 20:28N 40°51' E 029°16'0 0.0
2016-Jun-17 19:28N 40°51' E 029°16'0 0.0
2016-Jun-17 18:09N 40°51' E 029°16'0 0.0
2016-Jun-17 17:21N 40°51' E 029°16'0 0.0
2016-Jun-17 16:23N 40°51' E 029°16'0 0.0
2016-Jun-17 15:32N 40°51' E 029°16'0 0.0
2016-Jun-17 14:14N 40°51' E 029°16'0 0.0
2016-Jun-17 13:19N 40°51' E 029°16'0 0.0
2016-Jun-17 12:32N 40°51' E 029°16'116 3.8
2016-Jun-16 06:10N 40°26' E 026°47'3814.5
2016-Jun-16 03:33N 40°01' E 026°09'1918.9
2016-Jun-16 02:33N 39°48' E 025°51'9120.4
2016-Jun-15 22:06N 38°28' E 024°57'  

Dump ship's entire track history